createdAt,value
2023-10-23T00:00:10.514Z,100081.28
2023-10-23T00:02:41.546Z,100081.31
2023-10-23T00:05:10.475Z,100093.34
2023-10-23T00:07:39.036Z,100084.97
2023-10-23T00:10:10.791Z,100091.88
2023-10-23T00:12:39.177Z,100095.16
2023-10-23T00:15:09.038Z,100090.69
2023-10-23T00:17:37.781Z,100094.56
2023-10-23T00:20:09.515Z,100094.75
2023-10-23T00:22:37.956Z,100097.63
2023-10-23T00:25:06.808Z,100102.72
2023-10-23T00:27:36.575Z,100099.22
2023-10-23T00:30:06.014Z,100102.50
2023-10-23T00:32:34.957Z,100109.84
2023-10-23T00:35:03.398Z,100113.13
2023-10-23T00:37:33.119Z,100098.84
2023-10-23T00:40:01.419Z,100110.25
2023-10-23T00:42:29.814Z,100115.16
2023-10-23T00:44:59.790Z,100118.81
2023-10-23T00:47:28.894Z,100115.13
2023-10-23T00:49:58.842Z,100110.25
2023-10-23T00:52:28.376Z,100120.03
2023-10-23T00:54:57.104Z,100113.50
2023-10-23T00:57:25.703Z,100110.25
2023-10-23T00:59:54.256Z,100115.34
2023-10-23T01:02:24.150Z,100116.34
2023-10-23T01:04:53.695Z,100121.88
2023-10-23T01:07:22.117Z,100128.00
2023-10-23T01:09:50.597Z,100119.22
2023-10-23T01:12:19.041Z,100116.97
2023-10-23T01:14:47.425Z,100112.69
2023-10-23T01:17:15.842Z,100118.59
2023-10-23T01:19:45.657Z,100107.38
2023-10-23T01:22:14.075Z,100111.06
2023-10-23T01:24:45.634Z,100106.19
2023-10-23T01:27:15.410Z,100113.28
2023-10-23T01:29:43.798Z,100117.53
2023-10-23T01:32:12.730Z,100124.88
2023-10-23T01:34:41.108Z,100131.59
2023-10-23T01:37:09.617Z,100122.00
2023-10-23T01:39:37.998Z,100121.75
2023-10-23T01:42:07.430Z,100119.94
2023-10-23T01:44:37.369Z,100123.81
2023-10-23T01:47:06.441Z,100126.91
2023-10-23T01:49:34.809Z,100121.78
2023-10-23T01:52:03.272Z,100124.06
2023-10-23T01:54:31.847Z,100118.34
2023-10-23T01:57:00.299Z,100119.94
2023-10-23T01:59:28.681Z,100128.00
2023-10-23T02:01:58.556Z,100126.56
2023-10-23T02:04:28.379Z,100125.41
2023-10-23T02:06:57.622Z,100121.59
2023-10-23T02:09:28.141Z,100120.16
2023-10-23T02:11:56.600Z,100125.03
2023-10-23T02:14:24.974Z,100119.94
2023-10-23T02:16:53.361Z,100126.03
2023-10-23T02:19:23.126Z,100124.38
2023-10-23T02:21:52.234Z,100125.75
2023-10-23T02:24:21.682Z,100129.81
2023-10-23T02:26:50.504Z,100125.25
2023-10-23T02:29:18.859Z,100123.31
2023-10-23T02:31:47.370Z,100122.94
2023-10-23T02:34:15.759Z,100115.22
2023-10-23T02:36:45.586Z,100118.69
2023-10-23T02:39:13.973Z,100131.25
2023-10-23T02:41:42.675Z,100131.22
2023-10-23T02:44:12.133Z,100130.91
2023-10-23T02:46:41.886Z,100125.44
2023-10-23T02:49:10.431Z,100134.00
2023-10-23T02:51:39.540Z,100140.66
2023-10-23T02:54:09.971Z,100140.19
2023-10-23T02:56:38.987Z,100136.72
2023-10-23T02:59:07.786Z,100138.97
2023-10-23T03:01:39.036Z,100142.94
2023-10-23T03:04:07.974Z,100148.50
2023-10-23T03:06:36.436Z,100145.47
2023-10-23T03:09:06.124Z,100148.41
2023-10-23T03:11:35.928Z,100154.41
2023-10-23T03:14:05.096Z,100158.13
2023-10-23T03:16:33.854Z,100160.56
2023-10-23T03:19:02.318Z,100157.00
2023-10-23T03:21:30.999Z,100160.38
2023-10-23T03:23:59.487Z,100152.63
2023-10-23T03:26:29.133Z,100150.03
2023-10-23T03:28:58.866Z,100146.16
2023-10-23T03:31:27.213Z,100148.28
2023-10-23T03:33:55.632Z,100154.16
2023-10-23T03:36:24.058Z,100155.94
2023-10-23T03:38:52.496Z,100154.19
2023-10-23T03:41:20.882Z,100150.75
2023-10-23T03:43:49.287Z,100157.38
2023-10-23T03:46:19.204Z,100151.56
2023-10-23T03:48:47.823Z,100149.38
2023-10-23T03:51:17.059Z,100156.34
2023-10-23T03:53:45.469Z,100156.78
2023-10-23T03:56:13.837Z,100153.69
2023-10-23T03:58:42.726Z,100148.38
2023-10-23T04:01:11.086Z,100147.63
2023-10-23T04:03:40.941Z,100150.06
2023-10-23T04:06:09.468Z,100146.19
2023-10-23T04:08:37.812Z,100144.97
2023-10-23T04:11:06.188Z,100141.16
2023-10-23T04:13:36.913Z,100134.16
2023-10-23T04:16:05.753Z,100134.22
2023-10-23T04:18:34.268Z,100135.00
2023-10-23T04:21:09.354Z,100139.63
2023-10-23T04:23:39.108Z,100138.72
2023-10-23T04:26:07.906Z,100137.59
2023-10-23T04:28:37.611Z,100139.50
2023-10-23T04:31:06.167Z,100144.16
2023-10-23T04:33:35.038Z,100139.84
2023-10-23T04:36:03.667Z,100143.59
2023-10-23T04:38:33.977Z,100144.81
2023-10-23T04:41:02.288Z,100138.13
2023-10-23T04:43:30.850Z,100135.72
2023-10-23T04:45:59.509Z,100137.53
2023-10-23T04:48:27.987Z,100131.91
2023-10-23T04:51:01.043Z,100138.31
2023-10-23T04:53:29.614Z,100131.78
2023-10-23T04:55:59.777Z,100133.81
2023-10-23T04:58:28.395Z,100130.00
2023-10-23T05:00:57.217Z,100123.47
2023-10-23T05:03:25.835Z,100128.31
2023-10-23T05:05:54.196Z,100134.50
2023-10-23T05:08:22.553Z,100127.56
2023-10-23T05:10:50.885Z,100134.94
2023-10-23T05:13:20.588Z,100128.59
2023-10-23T05:15:49.011Z,100126.47
2023-10-23T05:18:17.447Z,100133.75
2023-10-23T05:20:45.934Z,100131.81
2023-10-23T05:23:14.297Z,100124.09
2023-10-23T05:25:42.691Z,100134.22
2023-10-23T05:28:10.991Z,100135.19
2023-10-23T05:30:40.744Z,100134.94
2023-10-23T05:33:09.191Z,100138.13
2023-10-23T05:35:37.563Z,100136.56
2023-10-23T05:38:05.906Z,100134.69
2023-10-23T05:40:34.194Z,100133.75
2023-10-23T05:43:02.621Z,100136.09
2023-10-23T05:45:31.106Z,100144.66
2023-10-23T05:48:00.960Z,100146.94
2023-10-23T05:50:29.340Z,100148.66
2023-10-23T05:52:57.701Z,100157.84
2023-10-23T05:55:26.063Z,100162.38
2023-10-23T05:57:54.573Z,100153.72
2023-10-23T06:00:23.022Z,100161.56
2023-10-23T06:02:51.438Z,100157.91
2023-10-23T06:05:21.166Z,100156.56
2023-10-23T06:07:49.768Z,100164.47
2023-10-23T06:10:18.249Z,100169.28
2023-10-23T06:12:46.684Z,100172.91
2023-10-23T06:15:15.272Z,100168.44
2023-10-23T06:17:43.651Z,100162.91
2023-10-23T06:20:13.055Z,100163.09
2023-10-23T06:22:42.751Z,100173.03
2023-10-23T06:25:11.284Z,100175.34
2023-10-23T06:27:39.744Z,100171.56
2023-10-23T06:30:09.592Z,100178.19
2023-10-23T06:32:37.999Z,100168.91
2023-10-23T06:35:07.779Z,100166.19
2023-10-23T06:37:36.297Z,100173.00
2023-10-23T06:40:07.673Z,100174.91
2023-10-23T06:42:36.734Z,100180.34
2023-10-23T06:45:06.352Z,100183.00
2023-10-23T06:47:35.198Z,100181.63
2023-10-23T06:50:06.068Z,100181.09
2023-10-23T06:52:34.963Z,100184.34
2023-10-23T06:55:03.854Z,100180.53
2023-10-23T06:57:33.582Z,100175.09
2023-10-23T07:00:01.981Z,100169.81
2023-10-23T07:02:30.488Z,100166.56
2023-10-23T07:04:58.836Z,100177.47
2023-10-23T07:07:30.161Z,100177.75
2023-10-23T07:10:01.628Z,100175.06
2023-10-23T07:12:30.303Z,100181.69
2023-10-23T07:15:00.281Z,100186.91
2023-10-23T07:17:29.241Z,100172.28
2023-10-23T07:19:57.668Z,100175.88
2023-10-23T07:22:26.024Z,100174.31
2023-10-23T07:24:57.696Z,100176.94
2023-10-23T07:27:27.730Z,100180.09
2023-10-23T07:29:59.287Z,100175.94
2023-10-23T07:32:27.709Z,100171.09
2023-10-23T07:34:56.312Z,100169.72
2023-10-23T07:37:24.710Z,100163.91
2023-10-23T07:39:53.044Z,100164.09
2023-10-23T07:42:21.446Z,100161.63
2023-10-23T07:44:49.878Z,100161.41
2023-10-23T07:47:20.378Z,100151.09
2023-10-23T07:49:48.771Z,100152.91
2023-10-23T07:52:17.116Z,100142.88
2023-10-23T07:54:45.453Z,100145.66
2023-10-23T07:57:13.760Z,100137.00
2023-10-23T07:59:42.413Z,100130.97
2023-10-23T08:02:10.969Z,100120.03
2023-10-23T08:04:41.440Z,100124.44
2023-10-23T08:07:10.008Z,100139.81
2023-10-23T08:09:38.694Z,100132.88
2023-10-23T08:12:08.743Z,100138.13
2023-10-23T08:14:37.093Z,100135.97
2023-10-23T08:17:05.995Z,100135.91
2023-10-23T08:19:34.505Z,100136.78
2023-10-23T08:22:04.514Z,100140.59
2023-10-23T08:24:32.957Z,100135.50
2023-10-23T08:27:01.315Z,100134.94
2023-10-23T08:29:29.640Z,100136.69
2023-10-23T08:31:58.566Z,100129.50
2023-10-23T08:34:27.118Z,100131.50
2023-10-23T08:36:55.720Z,100132.59
2023-10-23T08:39:26.424Z,100128.38
2023-10-23T08:41:55.584Z,100123.75
2023-10-23T08:44:23.973Z,100128.53
2023-10-23T08:46:52.752Z,100129.94
2023-10-23T08:49:21.243Z,100124.72
2023-10-23T08:51:51.699Z,100123.69
2023-10-23T08:54:23.352Z,100122.00
2023-10-23T08:56:59.701Z,100117.31
2023-10-23T08:59:28.997Z,100123.19
2023-10-23T09:02:01.486Z,100119.75
2023-10-23T09:04:30.640Z,100119.56
2023-10-23T09:07:00.879Z,100117.72
2023-10-23T09:09:29.971Z,100111.69
2023-10-23T09:12:00.006Z,100110.03
2023-10-23T09:14:32.152Z,100110.78
2023-10-23T09:17:01.858Z,100108.09
2023-10-23T09:19:35.542Z,100106.09
2023-10-23T09:22:06.077Z,100100.09
2023-10-23T09:24:35.073Z,100112.28
2023-10-23T09:27:05.762Z,100108.19
2023-10-23T09:29:36.207Z,100101.44
2023-10-23T09:32:06.469Z,100097.41
2023-10-23T09:34:35.228Z,100087.69
2023-10-23T09:37:03.747Z,100078.72
2023-10-23T09:39:32.919Z,100077.69
2023-10-23T09:42:02.250Z,100076.28
2023-10-23T09:44:32.555Z,100082.72
2023-10-23T09:47:01.842Z,100085.97
2023-10-23T09:49:32.512Z,100087.84
2023-10-23T09:52:02.446Z,100078.44
2023-10-23T09:54:33.743Z,100069.59
2023-10-23T09:57:06.101Z,100069.44
2023-10-23T09:59:48.431Z,100078.31
2023-10-23T10:02:20.649Z,100075.47
2023-10-23T10:05:00.183Z,100071.25
2023-10-23T10:07:34.017Z,100069.44
2023-10-23T10:10:06.543Z,100072.69
2023-10-23T10:12:39.052Z,100077.13
2023-10-23T10:15:11.901Z,100082.03
2023-10-23T10:17:44.856Z,100089.34
2023-10-23T10:20:14.002Z,100072.13
2023-10-23T10:22:45.783Z,100072.75
2023-10-23T10:25:14.932Z,100066.91
2023-10-23T10:27:43.648Z,100064.84
2023-10-23T10:30:43.243Z,100060.00
2023-10-23T10:34:17.419Z,100052.09
2023-10-23T10:36:06.710Z,100060.56
2023-10-23T10:38:36.786Z,100056.28
2023-10-23T10:41:06.781Z,100051.81
2023-10-23T10:43:38.983Z,100047.94
2023-10-23T10:46:19.075Z,100050.59
2023-10-23T10:48:49.522Z,100043.69
2023-10-23T10:51:19.548Z,100037.97
2023-10-23T10:53:48.884Z,100038.66
2023-10-23T10:56:17.482Z,100033.72
2023-10-23T10:58:46.731Z,100025.94
2023-10-23T11:01:16.637Z,100029.44
2023-10-23T11:03:45.305Z,100029.88
2023-10-23T11:06:13.724Z,100017.66
2023-10-23T11:08:42.771Z,100007.03
2023-10-23T11:11:11.289Z,100007.28
2023-10-23T11:13:41.355Z,100002.16
2023-10-23T11:16:10.041Z,99994.50
2023-10-23T11:18:40.387Z,100008.47
2023-10-23T11:21:08.967Z,99998.34
2023-10-23T11:23:37.352Z,100004.44
2023-10-23T11:26:05.770Z,99991.94
2023-10-23T11:28:34.206Z,99980.34
2023-10-23T11:31:03.379Z,99962.88
2023-10-23T11:33:31.881Z,99963.53
2023-10-23T11:36:01.941Z,99961.31
2023-10-23T11:38:30.266Z,99949.66
2023-10-23T11:40:58.728Z,99952.47
2023-10-23T11:43:27.210Z,99948.75
2023-10-23T11:45:55.867Z,99956.97
2023-10-23T11:48:26.107Z,99954.69
2023-10-23T11:50:54.959Z,99952.88
2023-10-23T11:53:25.373Z,99940.53
2023-10-23T11:55:53.994Z,99941.09
2023-10-23T11:58:28.088Z,99939.38
2023-10-23T12:00:56.628Z,99940.81
2023-10-23T12:03:25.022Z,99935.25
2023-10-23T12:05:53.491Z,99929.22
2023-10-23T12:08:21.831Z,99924.06
2023-10-23T12:10:51.608Z,99920.91
2023-10-23T12:13:20.633Z,99914.75
2023-10-23T12:15:49.163Z,99917.75
2023-10-23T12:18:17.622Z,99908.66
2023-10-23T12:20:45.983Z,99914.34
2023-10-23T12:23:14.460Z,99899.06
2023-10-23T12:25:42.939Z,99906.50
2023-10-23T12:28:13.166Z,99902.78
2023-10-23T12:30:41.775Z,99892.22
2023-10-23T12:33:18.872Z,99883.53
2023-10-23T12:35:53.602Z,99880.78
2023-10-23T12:38:22.690Z,99880.22
2023-10-23T12:40:51.395Z,99874.28
2023-10-23T12:43:21.485Z,99871.16
2023-10-23T12:45:50.020Z,99872.56
2023-10-23T12:48:18.830Z,99868.50
2023-10-23T12:50:47.310Z,99853.47
2023-10-23T12:53:16.190Z,99857.41
2023-10-23T12:55:44.908Z,99849.16
2023-10-23T12:58:13.315Z,99835.41
2023-10-23T13:00:43.178Z,99841.06
2023-10-23T13:03:11.727Z,99838.63
2023-10-23T13:05:40.162Z,99821.50
2023-10-23T13:08:08.617Z,99813.97
2023-10-23T13:10:37.081Z,99817.09
2023-10-23T13:13:05.836Z,99804.47
2023-10-23T13:15:34.182Z,99802.19
2023-10-23T13:18:04.599Z,99796.75
2023-10-23T13:20:54.276Z,99790.47
2023-10-23T13:23:21.397Z,99787.09
2023-10-23T13:26:05.855Z,99781.44
2023-10-23T13:28:38.049Z,99778.75
2023-10-23T13:31:06.495Z,99776.47
2023-10-23T13:33:36.331Z,99773.78
2023-10-23T13:36:05.190Z,99764.31
2023-10-23T13:38:33.972Z,99760.84
2023-10-23T13:41:03.735Z,99755.78
2023-10-23T13:43:32.164Z,99748.91
2023-10-23T13:46:01.063Z,99732.25
2023-10-23T13:48:29.690Z,99729.59
2023-10-23T13:50:59.739Z,99723.59
2023-10-23T13:53:28.108Z,99731.47
2023-10-23T13:55:56.652Z,99711.97
2023-10-23T13:58:25.085Z,99684.59
2023-10-23T14:00:53.524Z,99703.16
2023-10-23T14:03:22.011Z,99698.31
2023-10-23T14:05:51.461Z,99681.06
2023-10-23T14:08:21.413Z,99705.06
2023-10-23T14:11:54.423Z,99708.91
2023-10-23T14:13:59.054Z,99704.44
2023-10-23T14:16:28.577Z,99688.50
2023-10-23T14:18:58.105Z,99674.59
2023-10-23T14:21:26.486Z,99674.53
2023-10-23T14:23:56.214Z,99667.25
2023-10-23T14:26:24.598Z,99671.44
2023-10-23T14:28:53.016Z,99666.88
2023-10-23T14:31:21.412Z,99667.22
2023-10-23T14:33:49.951Z,99667.47
2023-10-23T14:36:18.599Z,99671.47
2023-10-23T14:38:47.412Z,99667.09
2023-10-23T14:41:17.140Z,99671.59
2023-10-23T14:43:45.533Z,99666.28
2023-10-23T14:46:16.992Z,99664.09
2023-10-23T14:48:46.073Z,99652.66
2023-10-23T14:51:14.620Z,99655.16
2023-10-23T14:53:43.008Z,99656.63
2023-10-23T14:56:12.618Z,99640.09
2023-10-23T14:58:42.329Z,99634.94
2023-10-23T15:01:11.112Z,99631.28
2023-10-23T15:03:42.706Z,99632.50
2023-10-23T15:06:12.085Z,99628.66
2023-10-23T15:08:40.470Z,99626.38
2023-10-23T15:11:13.868Z,99618.38
2023-10-23T15:13:43.727Z,99608.19
2023-10-23T15:16:12.152Z,99594.44
2023-10-23T15:18:40.578Z,99596.16
2023-10-23T15:21:09.220Z,99596.09
2023-10-23T15:23:37.691Z,99581.72
2023-10-23T15:26:06.542Z,99566.38
2023-10-23T15:28:36.803Z,99555.28
2023-10-23T15:31:08.010Z,99558.69
2023-10-23T15:33:37.836Z,99572.66
2023-10-23T15:36:07.901Z,99571.81
2023-10-23T15:38:36.850Z,99567.66
2023-10-23T15:41:08.150Z,99562.47
2023-10-23T15:43:37.361Z,99555.00
2023-10-23T15:46:13.299Z,99544.25
2023-10-23T15:48:42.193Z,99548.75
2023-10-23T15:51:11.698Z,99541.56
2023-10-23T15:53:40.584Z,99532.56
2023-10-23T15:56:09.616Z,99525.63
2023-10-23T15:58:38.444Z,99527.25
2023-10-23T16:01:10.277Z,99534.66
2023-10-23T16:03:38.884Z,99550.03
2023-10-23T16:06:10.215Z,99552.13
2023-10-23T16:08:39.497Z,99556.63
2023-10-23T16:11:08.424Z,99560.09
2023-10-23T16:13:39.112Z,99562.66
2023-10-23T16:16:14.621Z,99560.22
2023-10-23T16:18:47.128Z,99547.38
2023-10-23T16:21:16.901Z,99556.50
2023-10-23T16:23:45.331Z,99551.31
2023-10-23T16:26:13.768Z,99552.94
2023-10-23T16:28:42.144Z,99544.16
2023-10-23T16:31:16.776Z,99545.41
2023-10-23T16:33:45.347Z,99544.16
2023-10-23T16:36:13.711Z,99542.78
2023-10-23T16:38:42.124Z,99538.72
2023-10-23T16:41:10.477Z,99540.69
2023-10-23T16:43:42.065Z,99541.47
2023-10-23T16:46:12.795Z,99544.38
2023-10-23T16:48:43.663Z,99547.84
2023-10-23T16:51:12.066Z,99554.22
2023-10-23T16:53:40.473Z,99549.13
2023-10-23T16:56:09.322Z,99546.38
2023-10-23T16:58:37.907Z,99550.63
2023-10-23T17:01:07.925Z,99552.25
2023-10-23T17:03:38.769Z,99563.31
2023-10-23T17:06:10.178Z,99569.22
2023-10-23T17:08:38.722Z,99577.56
2023-10-23T17:11:08.150Z,99576.28
2023-10-23T17:13:36.738Z,99573.97
2023-10-23T17:16:06.004Z,99575.59
2023-10-23T17:18:34.896Z,99576.41
2023-10-23T17:21:03.965Z,99576.19
2023-10-23T17:23:35.422Z,99576.50
2023-10-23T17:26:04.532Z,99568.16
2023-10-23T17:28:33.076Z,99565.28
2023-10-23T17:31:02.338Z,99567.50
2023-10-23T17:33:31.904Z,99569.31
2023-10-23T17:36:01.264Z,99577.66
2023-10-23T17:38:29.762Z,99579.16
2023-10-23T17:40:59.804Z,99594.19
2023-10-23T17:43:28.224Z,99609.06
2023-10-23T17:46:01.805Z,99602.47
2023-10-23T17:48:30.189Z,99592.19
2023-10-23T17:51:04.362Z,99604.97
2023-10-23T17:53:33.214Z,99617.69
2023-10-23T17:56:04.337Z,99626.06
2023-10-23T17:58:32.840Z,99628.06
2023-10-23T18:01:01.406Z,99611.28
2023-10-23T18:03:30.056Z,99619.00
2023-10-23T18:05:59.508Z,99602.28
2023-10-23T18:08:28.854Z,99581.56
2023-10-23T18:10:57.170Z,99571.25
2023-10-23T18:13:27.086Z,99551.31
2023-10-23T18:15:55.550Z,99554.44
2023-10-23T18:18:25.111Z,99568.28
2023-10-23T18:20:55.131Z,99563.28
2023-10-23T18:23:23.730Z,99566.81
2023-10-23T18:25:52.498Z,99578.00
2023-10-23T18:28:21.096Z,99586.66
2023-10-23T18:30:50.841Z,99591.97
2023-10-23T18:33:19.296Z,99593.84
2023-10-23T18:35:47.760Z,99600.44
2023-10-23T18:38:16.282Z,99593.72
2023-10-23T18:40:44.707Z,99571.97
2023-10-23T18:43:13.607Z,99570.56
2023-10-23T18:45:45.583Z,99563.75
2023-10-23T18:48:15.646Z,99567.19
2023-10-23T18:50:44.134Z,99564.34
2023-10-23T18:53:12.549Z,99564.47
2023-10-23T18:55:41.101Z,99558.47
2023-10-23T18:58:09.646Z,99558.56
2023-10-23T19:00:38.204Z,99557.75
2023-10-23T19:03:06.721Z,99554.31
2023-10-23T19:05:38.529Z,99548.34
2023-10-23T19:08:07.777Z,99546.59
2023-10-23T19:10:36.218Z,99547.53
2023-10-23T19:13:04.677Z,99554.22
2023-10-23T19:15:33.133Z,99557.84
2023-10-23T19:18:02.129Z,99563.63
2023-10-23T19:20:30.857Z,99567.53
2023-10-23T19:23:00.593Z,99569.06
2023-10-23T19:25:29.430Z,99558.72
2023-10-23T19:27:57.928Z,99575.75
2023-10-23T19:30:26.333Z,99569.78
2023-10-23T19:32:55.485Z,99574.41
2023-10-23T19:35:25.518Z,99549.19
2023-10-23T19:37:54.636Z,99537.31
2023-10-23T19:40:26.568Z,99525.91
2023-10-23T19:42:59.835Z,99525.53
2023-10-23T19:45:29.347Z,99525.59
2023-10-23T19:47:58.555Z,99520.16
2023-10-23T19:50:27.919Z,99505.34
2023-10-23T19:52:57.922Z,99502.88
2023-10-23T19:55:45.247Z,99480.59
2023-10-23T19:58:16.497Z,99478.88
2023-10-23T20:00:45.105Z,99469.66
2023-10-23T20:03:13.706Z,99458.56
2023-10-23T20:05:42.263Z,99446.69
2023-10-23T20:08:10.678Z,99429.41
2023-10-23T20:10:40.767Z,99437.28
2023-10-23T20:13:09.232Z,99439.69
2023-10-23T20:15:37.990Z,99431.84
2023-10-23T20:18:08.727Z,99428.19
2023-10-23T20:20:37.363Z,99416.63
2023-10-23T20:23:06.168Z,99390.41
2023-10-23T20:25:35.725Z,99397.41
2023-10-23T20:28:06.128Z,99394.44
2023-10-23T20:30:35.082Z,99386.22
2023-10-23T20:33:04.096Z,99390.69
2023-10-23T20:35:32.662Z,99390.41
2023-10-23T20:38:01.042Z,99389.78
2023-10-23T20:40:29.489Z,99380.63
2023-10-23T20:42:57.955Z,99393.03
2023-10-23T20:45:27.798Z,99381.38
2023-10-23T20:47:56.176Z,99391.06
2023-10-23T20:50:25.556Z,99390.13
2023-10-23T20:52:53.992Z,99405.13
2023-10-23T20:55:22.397Z,99389.66
2023-10-23T20:57:50.865Z,99391.41
2023-10-23T21:00:20.078Z,99384.25
2023-10-23T21:02:49.930Z,99372.03
2023-10-23T21:05:18.459Z,99377.00
2023-10-23T21:07:46.808Z,99374.66
2023-10-23T21:10:15.473Z,99380.47
2023-10-23T21:12:43.924Z,99380.50
2023-10-23T21:15:12.703Z,99375.41
2023-10-23T21:17:42.353Z,99384.06
2023-10-23T21:20:12.941Z,99388.13
2023-10-23T21:22:42.194Z,99383.25
2023-10-23T21:25:11.175Z,99376.47
2023-10-23T21:27:39.622Z,99390.09
2023-10-23T21:30:09.465Z,99387.56
2023-10-23T21:32:37.906Z,99370.13
2023-10-23T21:35:07.928Z,99371.38
2023-10-23T21:37:37.706Z,99364.47
2023-10-23T21:40:08.605Z,99360.75
2023-10-23T21:42:37.062Z,99348.53
2023-10-23T21:45:06.061Z,99342.72
2023-10-23T21:47:34.717Z,99332.03
2023-10-23T21:50:03.789Z,99333.97
2023-10-23T21:52:33.060Z,99329.38
2023-10-23T21:55:13.786Z,99337.56
2023-10-23T21:57:47.561Z,99337.25
2023-10-23T22:00:28.448Z,99329.03
2023-10-23T22:02:58.382Z,99333.97
2023-10-23T22:05:27.818Z,99325.00
2023-10-23T22:07:57.074Z,99339.59
2023-10-23T22:10:28.182Z,99347.91
2023-10-23T22:12:58.356Z,99342.91
2023-10-23T22:15:26.819Z,99337.09
2023-10-23T22:17:55.233Z,99329.38
2023-10-23T22:20:24.079Z,99328.94
2023-10-23T22:22:52.458Z,99325.31
2023-10-23T22:25:22.390Z,99328.53
2023-10-23T22:27:52.213Z,99326.22
2023-10-23T22:30:20.525Z,99328.38
2023-10-23T22:33:00.197Z,99325.28
2023-10-23T22:35:37.250Z,99324.78
2023-10-23T22:38:09.198Z,99314.03
2023-10-23T22:40:38.222Z,99322.84
2023-10-23T22:43:08.190Z,99313.41
2023-10-23T22:45:47.188Z,99307.88
2023-10-23T22:48:23.990Z,99310.78
2023-10-23T22:50:52.934Z,99302.81
2023-10-23T22:53:22.883Z,99300.47
2023-10-23T22:55:55.815Z,99294.59
2023-10-23T22:58:31.521Z,99284.22
2023-10-23T23:01:01.058Z,99295.16
2023-10-23T23:03:30.517Z,99307.94
2023-10-23T23:06:07.028Z,99308.94
2023-10-23T23:08:40.745Z,99305.44
2023-10-23T23:11:09.916Z,99299.97
2023-10-23T23:13:40.338Z,99295.66
2023-10-23T23:16:09.044Z,99286.44
2023-10-23T23:18:40.410Z,99300.00
2023-10-23T23:21:12.307Z,99309.34
2023-10-23T23:23:40.673Z,99307.06
2023-10-23T23:26:09.977Z,99330.00
2023-10-23T23:28:39.717Z,99319.63
2023-10-23T23:31:08.143Z,99305.09
2023-10-23T23:33:36.810Z,99313.97
2023-10-23T23:36:06.901Z,99313.88
2023-10-23T23:38:35.261Z,99323.47
2023-10-23T23:41:03.594Z,99328.97
2023-10-23T23:43:31.981Z,99336.53
2023-10-23T23:46:02.185Z,99326.69
2023-10-23T23:48:30.623Z,99336.94
2023-10-23T23:50:59.178Z,99346.81
2023-10-23T23:53:27.871Z,99343.63
2023-10-23T23:55:56.202Z,99359.53
2023-10-23T23:58:25.094Z,99344.69
